sensor_id;sensor_type;location;lat;lon;timestamp;temperature;humidity
4749;DHT22;2388;53.582;9.962;2023-02-28T00:00:45;4.90;99.90
4749;DHT22;2388;53.582;9.962;2023-02-28T00:03:11;5.00;99.90
4749;DHT22;2388;53.582;9.962;2023-02-28T00:05:36;5.00;99.90
4749;DHT22;2388;53.582;9.962;2023-02-28T00:08:02;5.00;99.90
4749;DHT22;2388;53.582;9.962;2023-02-28T00:10:29;4.90;99.90
4749;DHT22;2388;53.582;9.962;2023-02-28T00:13:00;4.90;99.90
4749;DHT22;2388;53.582;9.962;2023-02-28T00:15:26;4.90;99.90
4749;DHT22;2388;53.582;9.962;2023-02-28T00:17:52;4.90;99.90
4749;DHT22;2388;53.582;9.962;2023-02-28T00:20:18;4.80;99.90
4749;DHT22;2388;53.582;9.962;2023-02-28T00:22:46;4.80;99.90
4749;DHT22;2388;53.582;9.962;2023-02-28T00:25:15;4.80;99.90
4749;DHT22;2388;53.582;9.962;2023-02-28T00:27:41;4.80;99.90
4749;DHT22;2388;53.582;9.962;2023-02-28T00:30:10;4.80;99.90
4749;DHT22;2388;53.582;9.962;2023-02-28T00:32:35;4.70;99.90
4749;DHT22;2388;53.582;9.962;2023-02-28T00:35:02;4.70;99.90
4749;DHT22;2388;53.582;9.962;2023-02-28T00:37:27;4.70;99.90
4749;DHT22;2388;53.582;9.962;2023-02-28T00:39:53;4.70;99.90
4749;DHT22;2388;53.582;9.962;2023-02-28T00:42:18;4.70;99.90
4749;DHT22;2388;53.582;9.962;2023-02-28T00:44:44;4.70;99.90
4749;DHT22;2388;53.582;9.962;2023-02-28T00:47:09;4.70;99.90
4749;DHT22;2388;53.582;9.962;2023-02-28T00:49:35;4.70;99.90
4749;DHT22;2388;53.582;9.962;2023-02-28T00:52:01;4.70;99.90
4749;DHT22;2388;53.582;9.962;2023-02-28T00:54:26;4.70;99.90
4749;DHT22;2388;53.582;9.962;2023-02-28T00:56:52;4.70;99.90
4749;DHT22;2388;53.582;9.962;2023-02-28T00:59:18;4.70;99.90
4749;DHT22;2388;53.582;9.962;2023-02-28T01:01:45;4.70;99.90
4749;DHT22;2388;53.582;9.962;2023-02-28T01:04:11;4.70;99.90
4749;DHT22;2388;53.582;9.962;2023-02-28T01:06:37;4.70;99.90
4749;DHT22;2388;53.582;9.962;2023-02-28T01:09:03;4.70;99.90
4749;DHT22;2388;53.582;9.962;2023-02-28T01:11:29;4.70;99.90
4749;DHT22;2388;53.582;9.962;2023-02-28T01:13:55;4.70;99.90
4749;DHT22;2388;53.582;9.962;2023-02-28T01:16:21;4.70;99.90
4749;DHT22;2388;53.582;9.962;2023-02-28T01:18:46;4.70;99.90
4749;DHT22;2388;53.582;9.962;2023-02-28T01:21:15;4.70;99.90
4749;DHT22;2388;53.582;9.962;2023-02-28T01:23:41;4.70;99.90
4749;DHT22;2388;53.582;9.962;2023-02-28T01:26:13;4.70;99.90
4749;DHT22;2388;53.582;9.962;2023-02-28T01:28:39;4.60;99.90
4749;DHT22;2388;53.582;9.962;2023-02-28T01:31:05;4.60;99.90
4749;DHT22;2388;53.582;9.962;2023-02-28T01:33:31;4.60;99.90
4749;DHT22;2388;53.582;9.962;2023-02-28T01:36:00;4.60;99.90
4749;DHT22;2388;53.582;9.962;2023-02-28T01:38:27;4.60;99.90
4749;DHT22;2388;53.582;9.962;2023-02-28T01:40:53;4.60;99.90
4749;DHT22;2388;53.582;9.962;2023-02-28T01:43:25;4.60;99.90
4749;DHT22;2388;53.582;9.962;2023-02-28T01:45:53;4.60;99.90
4749;DHT22;2388;53.582;9.962;2023-02-28T01:48:22;4.60;99.90
4749;DHT22;2388;53.582;9.962;2023-02-28T01:50:51;4.60;99.90
4749;DHT22;2388;53.582;9.962;2023-02-28T01:53:21;4.60;99.90
4749;DHT22;2388;53.582;9.962;2023-02-28T01:55:50;4.70;99.90
4749;DHT22;2388;53.582;9.962;2023-02-28T01:58:17;4.70;99.90
4749;DHT22;2388;53.582;9.962;2023-02-28T02:00:43;4.60;99.90
4749;DHT22;2388;53.582;9.962;2023-02-28T02:03:12;4.60;99.90
4749;DHT22;2388;53.582;9.962;2023-02-28T02:05:40;4.60;99.90
4749;DHT22;2388;53.582;9.962;2023-02-28T02:08:11;4.60;99.90
4749;DHT22;2388;53.582;9.962;2023-02-28T02:10:43;4.60;99.90
4749;DHT22;2388;53.582;9.962;2023-02-28T02:13:25;4.60;99.90
4749;DHT22;2388;53.582;9.962;2023-02-28T02:19:01;4.60;99.90
4749;DHT22;2388;53.582;9.962;2023-02-28T02:39:04;4.50;99.90
4749;DHT22;2388;53.582;9.962;2023-02-28T02:41:53;4.50;99.90
4749;DHT22;2388;53.582;9.962;2023-02-28T02:44:25;4.40;99.90
4749;DHT22;2388;53.582;9.962;2023-02-28T02:46:58;4.40;99.90
4749;DHT22;2388;53.582;9.962;2023-02-28T02:49:28;4.30;99.90
4749;DHT22;2388;53.582;9.962;2023-02-28T02:51:56;4.30;99.90
4749;DHT22;2388;53.582;9.962;2023-02-28T02:54:26;4.20;99.90
4749;DHT22;2388;53.582;9.962;2023-02-28T02:56:59;4.20;99.90
4749;DHT22;2388;53.582;9.962;2023-02-28T02:59:28;4.20;99.90
4749;DHT22;2388;53.582;9.962;2023-02-28T03:01:57;4.20;99.90
4749;DHT22;2388;53.582;9.962;2023-02-28T03:04:28;4.10;99.90
4749;DHT22;2388;53.582;9.962;2023-02-28T03:06:56;4.00;99.90
4749;DHT22;2388;53.582;9.962;2023-02-28T03:09:22;4.00;99.90
4749;DHT22;2388;53.582;9.962;2023-02-28T03:11:48;4.00;99.90
4749;DHT22;2388;53.582;9.962;2023-02-28T03:17:30;3.90;99.90
4749;DHT22;2388;53.582;9.962;2023-02-28T03:20:07;3.90;99.90
4749;DHT22;2388;53.582;9.962;2023-02-28T03:23:16;3.90;99.90
4749;DHT22;2388;53.582;9.962;2023-02-28T03:25:56;3.90;99.90
4749;DHT22;2388;53.582;9.962;2023-02-28T03:28:41;3.90;99.90
4749;DHT22;2388;53.582;9.962;2023-02-28T03:31:17;3.80;99.90
4749;DHT22;2388;53.582;9.962;2023-02-28T03:33:48;3.80;99.90
4749;DHT22;2388;53.582;9.962;2023-02-28T03:36:22;3.80;99.90
4749;DHT22;2388;53.582;9.962;2023-02-28T03:39:02;3.70;99.90
4749;DHT22;2388;53.582;9.962;2023-02-28T03:41:40;3.70;99.90
4749;DHT22;2388;53.582;9.962;2023-02-28T03:44:24;3.70;99.90
4749;DHT22;2388;53.582;9.962;2023-02-28T03:47:00;3.70;99.90
4749;DHT22;2388;53.582;9.962;2023-02-28T03:49:32;3.70;99.90
4749;DHT22;2388;53.582;9.962;2023-02-28T03:52:02;3.60;99.90
4749;DHT22;2388;53.582;9.962;2023-02-28T03:54:32;3.70;99.90
4749;DHT22;2388;53.582;9.962;2023-02-28T03:57:12;3.70;99.90
4749;DHT22;2388;53.582;9.962;2023-02-28T03:59:41;3.60;99.90
4749;DHT22;2388;53.582;9.962;2023-02-28T04:02:08;3.50;99.90
4749;DHT22;2388;53.582;9.962;2023-02-28T04:04:34;3.50;99.90
4749;DHT22;2388;53.582;9.962;2023-02-28T04:07:17;3.40;99.90
4749;DHT22;2388;53.582;9.962;2023-02-28T04:09:43;3.40;99.90
4749;DHT22;2388;53.582;9.962;2023-02-28T04:12:09;3.40;99.90
4749;DHT22;2388;53.582;9.962;2023-02-28T04:14:34;3.40;99.90
4749;DHT22;2388;53.582;9.962;2023-02-28T04:17:00;2.60;99.90
4749;DHT22;2388;53.582;9.962;2023-02-28T04:19:25;3.40;99.90
4749;DHT22;2388;53.582;9.962;2023-02-28T04:21:52;3.40;99.90
4749;DHT22;2388;53.582;9.962;2023-02-28T04:24:20;3.40;99.90
4749;DHT22;2388;53.582;9.962;2023-02-28T04:26:49;3.30;99.90
4749;DHT22;2388;53.582;9.962;2023-02-28T04:29:21;3.30;99.90
4749;DHT22;2388;53.582;9.962;2023-02-28T04:31:46;3.30;99.90
4749;DHT22;2388;53.582;9.962;2023-02-28T04:34:12;3.20;99.90
4749;DHT22;2388;53.582;9.962;2023-02-28T04:36:37;3.20;99.90
4749;DHT22;2388;53.582;9.962;2023-02-28T04:39:03;3.10;99.90
4749;DHT22;2388;53.582;9.962;2023-02-28T04:41:29;3.20;99.90
4749;DHT22;2388;53.582;9.962;2023-02-28T04:43:55;3.10;99.90
4749;DHT22;2388;53.582;9.962;2023-02-28T04:46:22;3.20;99.90
4749;DHT22;2388;53.582;9.962;2023-02-28T04:48:47;3.10;99.90
4749;DHT22;2388;53.582;9.962;2023-02-28T04:51:15;3.20;99.90
4749;DHT22;2388;53.582;9.962;2023-02-28T04:53:41;3.20;99.90
4749;DHT22;2388;53.582;9.962;2023-02-28T04:56:09;3.10;99.90
4749;DHT22;2388;53.582;9.962;2023-02-28T04:58:36;3.10;99.90
4749;DHT22;2388;53.582;9.962;2023-02-28T05:01:07;3.10;99.90
4749;DHT22;2388;53.582;9.962;2023-02-28T05:03:41;3.10;99.90
4749;DHT22;2388;53.582;9.962;2023-02-28T05:06:10;3.10;99.90
4749;DHT22;2388;53.582;9.962;2023-02-28T05:08:36;3.10;99.90
4749;DHT22;2388;53.582;9.962;2023-02-28T05:11:02;3.10;99.90
4749;DHT22;2388;53.582;9.962;2023-02-28T05:13:28;3.00;99.90
4749;DHT22;2388;53.582;9.962;2023-02-28T05:15:54;3.00;99.90
4749;DHT22;2388;53.582;9.962;2023-02-28T05:18:20;3.00;99.90
4749;DHT22;2388;53.582;9.962;2023-02-28T05:20:46;3.00;99.90
4749;DHT22;2388;53.582;9.962;2023-02-28T05:23:13;3.00;99.90
4749;DHT22;2388;53.582;9.962;2023-02-28T05:25:39;2.90;99.90
4749;DHT22;2388;53.582;9.962;2023-02-28T05:28:05;2.90;99.90
4749;DHT22;2388;53.582;9.962;2023-02-28T05:30:31;2.90;99.90
4749;DHT22;2388;53.582;9.962;2023-02-28T05:32:57;2.90;99.90
4749;DHT22;2388;53.582;9.962;2023-02-28T05:35:23;2.90;99.90
4749;DHT22;2388;53.582;9.962;2023-02-28T05:37:49;2.90;99.90
4749;DHT22;2388;53.582;9.962;2023-02-28T05:40:14;2.80;99.90
4749;DHT22;2388;53.582;9.962;2023-02-28T05:42:41;2.00;99.90
4749;DHT22;2388;53.582;9.962;2023-02-28T05:45:07;2.80;99.90
4749;DHT22;2388;53.582;9.962;2023-02-28T05:47:33;2.80;99.90
4749;DHT22;2388;53.582;9.962;2023-02-28T05:49:59;2.80;99.90
4749;DHT22;2388;53.582;9.962;2023-02-28T05:52:25;2.80;99.90
4749;DHT22;2388;53.582;9.962;2023-02-28T05:54:50;2.80;99.90
4749;DHT22;2388;53.582;9.962;2023-02-28T05:57:16;2.70;99.90
4749;DHT22;2388;53.582;9.962;2023-02-28T05:59:41;2.80;99.90
4749;DHT22;2388;53.582;9.962;2023-02-28T06:02:15;2.70;99.90
4749;DHT22;2388;53.582;9.962;2023-02-28T06:04:42;2.80;99.90
4749;DHT22;2388;53.582;9.962;2023-02-28T06:07:08;2.80;99.90
4749;DHT22;2388;53.582;9.962;2023-02-28T06:09:34;2.80;99.90
4749;DHT22;2388;53.582;9.962;2023-02-28T06:12:02;2.80;99.90
4749;DHT22;2388;53.582;9.962;2023-02-28T06:14:33;2.70;99.90
4749;DHT22;2388;53.582;9.962;2023-02-28T06:16:59;2.70;99.90
4749;DHT22;2388;53.582;9.962;2023-02-28T06:19:25;2.70;99.90
4749;DHT22;2388;53.582;9.962;2023-02-28T06:21:51;2.70;99.90
4749;DHT22;2388;53.582;9.962;2023-02-28T06:24:21;2.70;99.90
4749;DHT22;2388;53.582;9.962;2023-02-28T06:26:47;2.60;99.90
4749;DHT22;2388;53.582;9.962;2023-02-28T06:29:13;1.90;99.90
4749;DHT22;2388;53.582;9.962;2023-02-28T06:31:44;2.60;99.90
4749;DHT22;2388;53.582;9.962;2023-02-28T06:34:10;2.60;99.90
4749;DHT22;2388;53.582;9.962;2023-02-28T06:36:37;2.70;99.90
4749;DHT22;2388;53.582;9.962;2023-02-28T06:39:03;2.60;99.90
4749;DHT22;2388;53.582;9.962;2023-02-28T06:41:28;2.70;99.90
4749;DHT22;2388;53.582;9.962;2023-02-28T06:43:54;2.60;99.90
4749;DHT22;2388;53.582;9.962;2023-02-28T06:46:20;2.70;99.90
4749;DHT22;2388;53.582;9.962;2023-02-28T06:48:45;2.70;99.90
4749;DHT22;2388;53.582;9.962;2023-02-28T06:51:14;2.70;99.90
4749;DHT22;2388;53.582;9.962;2023-02-28T06:53:40;2.70;99.90
4749;DHT22;2388;53.582;9.962;2023-02-28T06:56:08;2.70;99.90
4749;DHT22;2388;53.582;9.962;2023-02-28T06:58:35;2.70;99.90
4749;DHT22;2388;53.582;9.962;2023-02-28T07:01:01;2.70;99.90
4749;DHT22;2388;53.582;9.962;2023-02-28T07:03:27;2.70;99.90
4749;DHT22;2388;53.582;9.962;2023-02-28T07:05:52;2.70;99.90
4749;DHT22;2388;53.582;9.962;2023-02-28T07:08:18;2.80;99.90
4749;DHT22;2388;53.582;9.962;2023-02-28T07:10:43;2.80;99.90
4749;DHT22;2388;53.582;9.962;2023-02-28T07:13:09;2.80;99.90
4749;DHT22;2388;53.582;9.962;2023-02-28T07:15:36;2.80;99.90
4749;DHT22;2388;53.582;9.962;2023-02-28T07:18:02;2.80;99.90
4749;DHT22;2388;53.582;9.962;2023-02-28T07:20:28;2.80;99.90
4749;DHT22;2388;53.582;9.962;2023-02-28T07:22:54;2.90;99.90
4749;DHT22;2388;53.582;9.962;2023-02-28T07:25:24;2.90;99.90
4749;DHT22;2388;53.582;9.962;2023-02-28T07:27:49;2.90;99.90
4749;DHT22;2388;53.582;9.962;2023-02-28T07:30:15;2.90;99.90
4749;DHT22;2388;53.582;9.962;2023-02-28T07:32:42;2.90;99.90
4749;DHT22;2388;53.582;9.962;2023-02-28T07:35:08;3.00;99.90
4749;DHT22;2388;53.582;9.962;2023-02-28T07:37:33;3.00;99.90
4749;DHT22;2388;53.582;9.962;2023-02-28T07:40:06;3.00;99.90
4749;DHT22;2388;53.582;9.962;2023-02-28T07:42:34;3.00;99.90
4749;DHT22;2388;53.582;9.962;2023-02-28T07:44:59;3.10;99.90
4749;DHT22;2388;53.582;9.962;2023-02-28T07:47:25;3.10;99.90
4749;DHT22;2388;53.582;9.962;2023-02-28T07:49:50;3.10;99.90
4749;DHT22;2388;53.582;9.962;2023-02-28T07:52:16;3.10;99.90
4749;DHT22;2388;53.582;9.962;2023-02-28T07:54:41;3.10;99.90
4749;DHT22;2388;53.582;9.962;2023-02-28T07:57:07;3.10;99.90
4749;DHT22;2388;53.582;9.962;2023-02-28T07:59:32;3.10;99.90
4749;DHT22;2388;53.582;9.962;2023-02-28T08:01:58;3.20;99.90
4749;DHT22;2388;53.582;9.962;2023-02-28T08:04:24;3.20;99.90
4749;DHT22;2388;53.582;9.962;2023-02-28T08:06:50;3.20;99.90
4749;DHT22;2388;53.582;9.962;2023-02-28T08:09:18;3.30;99.90
4749;DHT22;2388;53.582;9.962;2023-02-28T08:11:43;3.30;99.90
4749;DHT22;2388;53.582;9.962;2023-02-28T08:14:09;3.30;99.90
4749;DHT22;2388;53.582;9.962;2023-02-28T08:16:34;3.40;99.90
4749;DHT22;2388;53.582;9.962;2023-02-28T08:19:00;3.40;99.90
4749;DHT22;2388;53.582;9.962;2023-02-28T08:21:26;3.50;99.90
4749;DHT22;2388;53.582;9.962;2023-02-28T08:23:51;3.50;99.90
4749;DHT22;2388;53.582;9.962;2023-02-28T08:28:47;3.60;99.90
4749;DHT22;2388;53.582;9.962;2023-02-28T08:31:14;3.70;99.90
4749;DHT22;2388;53.582;9.962;2023-02-28T08:33:41;3.80;99.90
4749;DHT22;2388;53.582;9.962;2023-02-28T08:36:07;3.80;99.90
4749;DHT22;2388;53.582;9.962;2023-02-28T08:38:34;3.90;99.90
4749;DHT22;2388;53.582;9.962;2023-02-28T08:41:02;3.90;99.90
4749;DHT22;2388;53.582;9.962;2023-02-28T08:43:28;3.90;99.90
4749;DHT22;2388;53.582;9.962;2023-02-28T08:45:57;4.00;99.90
4749;DHT22;2388;53.582;9.962;2023-02-28T08:48:24;4.10;99.90
4749;DHT22;2388;53.582;9.962;2023-02-28T08:51:01;4.10;99.90
4749;DHT22;2388;53.582;9.962;2023-02-28T08:53:27;4.10;99.90
4749;DHT22;2388;53.582;9.962;2023-02-28T08:56:00;4.10;99.90
4749;DHT22;2388;53.582;9.962;2023-02-28T08:58:26;4.10;99.90
4749;DHT22;2388;53.582;9.962;2023-02-28T09:00:52;4.10;99.90
4749;DHT22;2388;53.582;9.962;2023-02-28T09:03:18;4.20;99.90
4749;DHT22;2388;53.582;9.962;2023-02-28T09:05:57;4.30;99.90
4749;DHT22;2388;53.582;9.962;2023-02-28T09:08:24;4.40;99.90
4749;DHT22;2388;53.582;9.962;2023-02-28T09:10:50;4.60;99.90
4749;DHT22;2388;53.582;9.962;2023-02-28T09:13:16;4.70;99.90
4749;DHT22;2388;53.582;9.962;2023-02-28T09:15:42;4.60;99.90
4749;DHT22;2388;53.582;9.962;2023-02-28T09:18:07;4.60;99.90
4749;DHT22;2388;53.582;9.962;2023-02-28T09:20:33;4.60;99.90
4749;DHT22;2388;53.582;9.962;2023-02-28T09:22:59;4.70;99.90
4749;DHT22;2388;53.582;9.962;2023-02-28T09:25:24;4.70;99.90
4749;DHT22;2388;53.582;9.962;2023-02-28T09:27:50;4.70;99.90
4749;DHT22;2388;53.582;9.962;2023-02-28T09:30:15;4.80;99.90
4749;DHT22;2388;53.582;9.962;2023-02-28T09:32:41;4.80;99.90
4749;DHT22;2388;53.582;9.962;2023-02-28T09:35:07;4.80;99.90
4749;DHT22;2388;53.582;9.962;2023-02-28T09:37:38;4.80;99.90
4749;DHT22;2388;53.582;9.962;2023-02-28T09:40:04;4.80;99.90
4749;DHT22;2388;53.582;9.962;2023-02-28T09:42:32;4.90;99.90
4749;DHT22;2388;53.582;9.962;2023-02-28T09:45:00;4.90;99.90
4749;DHT22;2388;53.582;9.962;2023-02-28T09:47:30;4.90;99.90
4749;DHT22;2388;53.582;9.962;2023-02-28T09:49:58;5.00;99.90
4749;DHT22;2388;53.582;9.962;2023-02-28T09:52:29;5.00;99.90
4749;DHT22;2388;53.582;9.962;2023-02-28T09:55:18;5.00;99.90
4749;DHT22;2388;53.582;9.962;2023-02-28T09:57:42;5.00;99.90
4749;DHT22;2388;53.582;9.962;2023-02-28T10:05:27;5.20;99.90
4749;DHT22;2388;53.582;9.962;2023-02-28T10:08:08;5.30;99.90
4749;DHT22;2388;53.582;9.962;2023-02-28T10:10:45;5.40;99.90
4749;DHT22;2388;53.582;9.962;2023-02-28T10:15:55;5.70;99.90
4749;DHT22;2388;53.582;9.962;2023-02-28T10:18:26;5.80;99.90
4749;DHT22;2388;53.582;9.962;2023-02-28T10:20:53;5.90;99.90
4749;DHT22;2388;53.582;9.962;2023-02-28T10:23:28;5.90;99.90
4749;DHT22;2388;53.582;9.962;2023-02-28T10:26:01;5.80;99.90
4749;DHT22;2388;53.582;9.962;2023-02-28T10:28:30;5.60;99.90
4749;DHT22;2388;53.582;9.962;2023-02-28T10:30:56;5.60;99.90
4749;DHT22;2388;53.582;9.962;2023-02-28T10:35:51;5.60;99.90
4749;DHT22;2388;53.582;9.962;2023-02-28T10:38:23;5.70;99.90
4749;DHT22;2388;53.582;9.962;2023-02-28T10:40:50;5.70;99.90
4749;DHT22;2388;53.582;9.962;2023-02-28T10:45:55;5.80;99.90
4749;DHT22;2388;53.582;9.962;2023-02-28T11:01:21;6.30;99.90
4749;DHT22;2388;53.582;9.962;2023-02-28T11:03:48;6.40;99.90
4749;DHT22;2388;53.582;9.962;2023-02-28T11:06:20;6.50;99.90
4749;DHT22;2388;53.582;9.962;2023-02-28T11:08:52;6.60;99.90
4749;DHT22;2388;53.582;9.962;2023-02-28T11:11:20;6.90;99.90
4749;DHT22;2388;53.582;9.962;2023-02-28T11:13:47;7.00;99.90
4749;DHT22;2388;53.582;9.962;2023-02-28T11:16:16;7.10;99.90
4749;DHT22;2388;53.582;9.962;2023-02-28T11:19:00;7.30;99.90
4749;DHT22;2388;53.582;9.962;2023-02-28T11:21:29;7.70;99.90
4749;DHT22;2388;53.582;9.962;2023-02-28T11:24:02;8.80;99.90
4749;DHT22;2388;53.582;9.962;2023-02-28T11:26:42;9.90;99.90
4749;DHT22;2388;53.582;9.962;2023-02-28T11:29:26;10.60;99.90
4749;DHT22;2388;53.582;9.962;2023-02-28T11:32:04;10.70;99.90
4749;DHT22;2388;53.582;9.962;2023-02-28T11:34:30;10.50;99.90
4749;DHT22;2388;53.582;9.962;2023-02-28T11:36:58;10.50;99.90
4749;DHT22;2388;53.582;9.962;2023-02-28T11:39:25;10.30;99.90
4749;DHT22;2388;53.582;9.962;2023-02-28T11:42:04;9.80;99.90
4749;DHT22;2388;53.582;9.962;2023-02-28T11:45:03;9.30;99.90
4749;DHT22;2388;53.582;9.962;2023-02-28T11:47:38;8.90;99.90
4749;DHT22;2388;53.582;9.962;2023-02-28T11:50:16;8.40;99.90
4749;DHT22;2388;53.582;9.962;2023-02-28T11:52:53;8.00;99.90
4749;DHT22;2388;53.582;9.962;2023-02-28T11:58:30;7.80;99.90
4749;DHT22;2388;53.582;9.962;2023-02-28T12:12:49;7.90;99.90
4749;DHT22;2388;53.582;9.962;2023-02-28T12:18:16;8.10;99.90
4749;DHT22;2388;53.582;9.962;2023-02-28T12:20:53;8.30;99.90
4749;DHT22;2388;53.582;9.962;2023-02-28T12:24:05;8.70;99.90
4749;DHT22;2388;53.582;9.962;2023-02-28T12:28:51;9.00;99.90
4749;DHT22;2388;53.582;9.962;2023-02-28T12:31:22;9.20;99.90
4749;DHT22;2388;53.582;9.962;2023-02-28T12:33:55;9.40;99.90
4749;DHT22;2388;53.582;9.962;2023-02-28T12:36:22;9.50;99.90
4749;DHT22;2388;53.582;9.962;2023-02-28T12:38:56;9.70;99.90
4749;DHT22;2388;53.582;9.962;2023-02-28T12:41:36;9.80;99.90
4749;DHT22;2388;53.582;9.962;2023-02-28T12:44:09;10.00;99.90
4749;DHT22;2388;53.582;9.962;2023-02-28T12:46:43;10.10;99.90
4749;DHT22;2388;53.582;9.962;2023-02-28T12:49:16;10.00;99.90
4749;DHT22;2388;53.582;9.962;2023-02-28T12:51:43;10.00;99.90
4749;DHT22;2388;53.582;9.962;2023-02-28T12:54:34;10.00;99.90
4749;DHT22;2388;53.582;9.962;2023-02-28T12:59:54;10.10;99.90
4749;DHT22;2388;53.582;9.962;2023-02-28T13:02:46;10.30;99.90
4749;DHT22;2388;53.582;9.962;2023-02-28T13:10:52;10.00;99.90
4749;DHT22;2388;53.582;9.962;2023-02-28T13:13:26;10.00;99.90
4749;DHT22;2388;53.582;9.962;2023-02-28T13:16:08;10.00;99.90
4749;DHT22;2388;53.582;9.962;2023-02-28T13:18:39;10.10;99.90
4749;DHT22;2388;53.582;9.962;2023-02-28T13:21:08;10.10;99.90
4749;DHT22;2388;53.582;9.962;2023-02-28T13:23:59;10.20;99.90
4749;DHT22;2388;53.582;9.962;2023-02-28T13:29:27;10.10;99.90
4749;DHT22;2388;53.582;9.962;2023-02-28T13:34:32;9.90;99.90
4749;DHT22;2388;53.582;9.962;2023-02-28T13:47:42;9.60;99.90
4749;DHT22;2388;53.582;9.962;2023-02-28T14:06:52;9.70;99.90
4749;DHT22;2388;53.582;9.962;2023-02-28T14:11:56;9.70;99.90
4749;DHT22;2388;53.582;9.962;2023-02-28T14:17:04;9.70;99.90
4749;DHT22;2388;53.582;9.962;2023-02-28T14:19:32;9.60;99.90
4749;DHT22;2388;53.582;9.962;2023-02-28T14:22:25;9.60;99.90
4749;DHT22;2388;53.582;9.962;2023-02-28T14:27:58;9.70;99.90
4749;DHT22;2388;53.582;9.962;2023-02-28T14:30:49;9.70;99.90
4749;DHT22;2388;53.582;9.962;2023-02-28T14:36:03;9.70;99.90
4749;DHT22;2388;53.582;9.962;2023-02-28T14:38:36;9.60;99.90
4749;DHT22;2388;53.582;9.962;2023-02-28T14:41:19;9.50;99.90
4749;DHT22;2388;53.582;9.962;2023-02-28T14:43:56;9.50;99.90
4749;DHT22;2388;53.582;9.962;2023-02-28T14:46:26;9.40;99.90
4749;DHT22;2388;53.582;9.962;2023-02-28T14:48:52;9.30;99.90
4749;DHT22;2388;53.582;9.962;2023-02-28T14:51:20;9.20;99.90
4749;DHT22;2388;53.582;9.962;2023-02-28T14:53:50;9.10;99.90
4749;DHT22;2388;53.582;9.962;2023-02-28T14:56:21;9.00;99.90
4749;DHT22;2388;53.582;9.962;2023-02-28T14:58:52;8.90;99.90
4749;DHT22;2388;53.582;9.962;2023-02-28T15:01:20;8.80;99.90
4749;DHT22;2388;53.582;9.962;2023-02-28T15:03:47;8.80;99.90
4749;DHT22;2388;53.582;9.962;2023-02-28T15:06:19;8.70;99.90
4749;DHT22;2388;53.582;9.962;2023-02-28T15:08:46;8.60;99.90
4749;DHT22;2388;53.582;9.962;2023-02-28T15:11:15;8.50;99.90
4749;DHT22;2388;53.582;9.962;2023-02-28T15:13:43;8.50;99.90
4749;DHT22;2388;53.582;9.962;2023-02-28T15:16:24;8.40;99.90
4749;DHT22;2388;53.582;9.962;2023-02-28T15:18:54;8.30;99.90
4749;DHT22;2388;53.582;9.962;2023-02-28T15:21:24;8.30;99.90
4749;DHT22;2388;53.582;9.962;2023-02-28T15:23:54;8.30;99.90
4749;DHT22;2388;53.582;9.962;2023-02-28T15:26:25;8.20;99.90
4749;DHT22;2388;53.582;9.962;2023-02-28T15:28:58;8.20;99.90
4749;DHT22;2388;53.582;9.962;2023-02-28T15:31:37;8.20;99.90
4749;DHT22;2388;53.582;9.962;2023-02-28T15:34:06;8.10;99.90
4749;DHT22;2388;53.582;9.962;2023-02-28T15:36:33;8.10;99.90
4749;DHT22;2388;53.582;9.962;2023-02-28T15:39:03;8.10;99.90
4749;DHT22;2388;53.582;9.962;2023-02-28T15:41:37;8.00;99.90
4749;DHT22;2388;53.582;9.962;2023-02-28T15:44:27;7.90;99.90
4749;DHT22;2388;53.582;9.962;2023-02-28T15:47:01;7.90;99.90
4749;DHT22;2388;53.582;9.962;2023-02-28T15:49:29;7.90;99.90
4749;DHT22;2388;53.582;9.962;2023-02-28T15:51:58;7.90;99.90
4749;DHT22;2388;53.582;9.962;2023-02-28T15:54:29;7.90;99.90
4749;DHT22;2388;53.582;9.962;2023-02-28T15:56:57;7.90;99.90
4749;DHT22;2388;53.582;9.962;2023-02-28T15:59:30;7.90;99.90
4749;DHT22;2388;53.582;9.962;2023-02-28T16:02:32;7.80;99.90
4749;DHT22;2388;53.582;9.962;2023-02-28T16:07:38;7.70;99.90
4749;DHT22;2388;53.582;9.962;2023-02-28T16:10:05;7.70;99.90
4749;DHT22;2388;53.582;9.962;2023-02-28T16:12:33;7.70;99.90
4749;DHT22;2388;53.582;9.962;2023-02-28T16:15:01;7.70;99.90
4749;DHT22;2388;53.582;9.962;2023-02-28T16:17:34;7.70;99.90
4749;DHT22;2388;53.582;9.962;2023-02-28T16:20:00;7.70;99.90
4749;DHT22;2388;53.582;9.962;2023-02-28T16:22:26;7.70;99.90
4749;DHT22;2388;53.582;9.962;2023-02-28T16:24:52;7.60;99.90
4749;DHT22;2388;53.582;9.962;2023-02-28T16:27:21;7.50;99.90
4749;DHT22;2388;53.582;9.962;2023-02-28T16:29:47;7.50;99.90
4749;DHT22;2388;53.582;9.962;2023-02-28T16:32:15;7.50;99.90
4749;DHT22;2388;53.582;9.962;2023-02-28T16:34:41;7.50;99.90
4749;DHT22;2388;53.582;9.962;2023-02-28T16:37:13;7.40;99.90
4749;DHT22;2388;53.582;9.962;2023-02-28T16:39:39;7.30;99.90
4749;DHT22;2388;53.582;9.962;2023-02-28T16:42:05;7.30;99.90
4749;DHT22;2388;53.582;9.962;2023-02-28T16:44:33;7.30;99.90
4749;DHT22;2388;53.582;9.962;2023-02-28T16:47:00;7.20;99.90
4749;DHT22;2388;53.582;9.962;2023-02-28T16:49:26;7.20;99.90
4749;DHT22;2388;53.582;9.962;2023-02-28T16:51:52;7.20;99.90
4749;DHT22;2388;53.582;9.962;2023-02-28T16:54:17;7.10;99.90
4749;DHT22;2388;53.582;9.962;2023-02-28T16:56:45;7.10;99.90
4749;DHT22;2388;53.582;9.962;2023-02-28T16:59:12;7.10;99.90
4749;DHT22;2388;53.582;9.962;2023-02-28T17:01:38;7.10;99.90
4749;DHT22;2388;53.582;9.962;2023-02-28T17:04:04;7.10;99.90
4749;DHT22;2388;53.582;9.962;2023-02-28T17:06:30;7.00;99.90
4749;DHT22;2388;53.582;9.962;2023-02-28T17:08:57;7.00;99.90
4749;DHT22;2388;53.582;9.962;2023-02-28T17:11:23;7.00;99.90
4749;DHT22;2388;53.582;9.962;2023-02-28T17:13:49;7.00;99.90
4749;DHT22;2388;53.582;9.962;2023-02-28T17:16:41;6.90;99.90
4749;DHT22;2388;53.582;9.962;2023-02-28T17:19:15;6.90;99.90
4749;DHT22;2388;53.582;9.962;2023-02-28T17:21:41;6.90;99.90
4749;DHT22;2388;53.582;9.962;2023-02-28T17:24:07;6.80;99.90
4749;DHT22;2388;53.582;9.962;2023-02-28T17:26:33;6.70;99.90
4749;DHT22;2388;53.582;9.962;2023-02-28T17:28:59;6.70;99.90
4749;DHT22;2388;53.582;9.962;2023-02-28T17:31:26;6.70;99.90
4749;DHT22;2388;53.582;9.962;2023-02-28T17:33:52;6.70;99.90
4749;DHT22;2388;53.582;9.962;2023-02-28T17:36:22;6.70;99.90
4749;DHT22;2388;53.582;9.962;2023-02-28T17:38:48;6.70;99.90
4749;DHT22;2388;53.582;9.962;2023-02-28T17:41:14;6.60;99.90
4749;DHT22;2388;53.582;9.962;2023-02-28T17:43:40;6.70;99.90
4749;DHT22;2388;53.582;9.962;2023-02-28T17:46:10;6.60;99.90
4749;DHT22;2388;53.582;9.962;2023-02-28T17:48:39;6.60;99.90
4749;DHT22;2388;53.582;9.962;2023-02-28T17:51:05;6.60;99.90
4749;DHT22;2388;53.582;9.962;2023-02-28T17:53:30;6.60;99.90
4749;DHT22;2388;53.582;9.962;2023-02-28T17:55:55;6.50;99.90
4749;DHT22;2388;53.582;9.962;2023-02-28T17:58:21;6.50;99.90
4749;DHT22;2388;53.582;9.962;2023-02-28T18:00:46;6.50;99.90
4749;DHT22;2388;53.582;9.962;2023-02-28T18:03:13;6.50;99.90
4749;DHT22;2388;53.582;9.962;2023-02-28T18:05:38;6.40;99.90
4749;DHT22;2388;53.582;9.962;2023-02-28T18:08:04;6.40;99.90
4749;DHT22;2388;53.582;9.962;2023-02-28T18:10:29;6.30;99.90
4749;DHT22;2388;53.582;9.962;2023-02-28T18:12:58;6.30;99.90
4749;DHT22;2388;53.582;9.962;2023-02-28T18:15:24;6.30;99.90
4749;DHT22;2388;53.582;9.962;2023-02-28T18:17:49;6.30;99.90
4749;DHT22;2388;53.582;9.962;2023-02-28T18:20:15;6.30;99.90
4749;DHT22;2388;53.582;9.962;2023-02-28T18:22:42;6.30;99.90
4749;DHT22;2388;53.582;9.962;2023-02-28T18:25:09;6.30;99.90
4749;DHT22;2388;53.582;9.962;2023-02-28T18:27:39;6.20;99.90
4749;DHT22;2388;53.582;9.962;2023-02-28T18:30:05;6.20;99.90
4749;DHT22;2388;53.582;9.962;2023-02-28T18:32:30;6.20;99.90
4749;DHT22;2388;53.582;9.962;2023-02-28T18:34:56;6.20;99.90
4749;DHT22;2388;53.582;9.962;2023-02-28T18:37:21;6.20;99.90